sensor_id;sensor_type;location;lat;lon;timestamp;P1;durP1;ratioP1;P2;durP2;ratioP2
82304;SDS011;71914;47.382;8.168;2023-08-06T00:00:22;4.90;;;1.80;;
82304;SDS011;71914;47.382;8.168;2023-08-06T00:02:49;2.10;;;1.67;;
82304;SDS011;71914;47.382;8.168;2023-08-06T00:05:16;2.00;;;1.67;;
82304;SDS011;71914;47.382;8.168;2023-08-06T00:07:46;3.90;;;1.77;;
82304;SDS011;71914;47.382;8.168;2023-08-06T00:10:14;2.10;;;1.42;;
82304;SDS011;71914;47.382;8.168;2023-08-06T00:12:40;2.35;;;1.70;;
82304;SDS011;71914;47.382;8.168;2023-08-06T00:15:08;2.60;;;1.83;;
82304;SDS011;71914;47.382;8.168;2023-08-06T00:17:35;2.90;;;1.45;;
82304;SDS011;71914;47.382;8.168;2023-08-06T00:20:02;1.83;;;1.38;;
82304;SDS011;71914;47.382;8.168;2023-08-06T00:22:30;2.03;;;1.60;;
82304;SDS011;71914;47.382;8.168;2023-08-06T00:24:57;2.42;;;1.35;;
82304;SDS011;71914;47.382;8.168;2023-08-06T00:27:25;2.13;;;1.30;;
82304;SDS011;71914;47.382;8.168;2023-08-06T00:29:52;1.65;;;1.30;;
82304;SDS011;71914;47.382;8.168;2023-08-06T00:32:19;3.20;;;1.50;;
82304;SDS011;71914;47.382;8.168;2023-08-06T00:34:46;2.65;;;1.50;;
82304;SDS011;71914;47.382;8.168;2023-08-06T00:37:14;1.98;;;1.10;;
82304;SDS011;71914;47.382;8.168;2023-08-06T00:39:41;2.72;;;1.20;;
82304;SDS011;71914;47.382;8.168;2023-08-06T00:42:08;2.25;;;1.20;;
82304;SDS011;71914;47.382;8.168;2023-08-06T00:47:02;3.60;;;1.20;;
82304;SDS011;71914;47.382;8.168;2023-08-06T00:49:29;2.45;;;1.38;;
82304;SDS011;71914;47.382;8.168;2023-08-06T00:51:56;2.20;;;1.13;;
82304;SDS011;71914;47.382;8.168;2023-08-06T00:54:23;1.70;;;1.13;;
82304;SDS011;71914;47.382;8.168;2023-08-06T00:56:51;4.35;;;1.30;;
82304;SDS011;71914;47.382;8.168;2023-08-06T00:59:18;2.35;;;1.08;;
82304;SDS011;71914;47.382;8.168;2023-08-06T01:01:47;1.92;;;1.17;;
82304;SDS011;71914;47.382;8.168;2023-08-06T01:04:15;1.50;;;0.90;;
82304;SDS011;71914;47.382;8.168;2023-08-06T01:06:43;1.63;;;1.17;;
82304;SDS011;71914;47.382;8.168;2023-08-06T01:09:18;2.47;;;1.10;;
82304;SDS011;71914;47.382;8.168;2023-08-06T01:12:04;4.03;;;1.17;;
82304;SDS011;71914;47.382;8.168;2023-08-06T01:14:43;1.45;;;1.00;;
82304;SDS011;71914;47.382;8.168;2023-08-06T01:17:15;1.73;;;1.02;;
82304;SDS011;71914;47.382;8.168;2023-08-06T01:19:43;1.50;;;1.10;;
82304;SDS011;71914;47.382;8.168;2023-08-06T01:22:11;1.73;;;0.80;;
82304;SDS011;71914;47.382;8.168;2023-08-06T01:24:40;2.13;;;0.85;;
82304;SDS011;71914;47.382;8.168;2023-08-06T01:27:14;2.17;;;1.00;;
82304;SDS011;71914;47.382;8.168;2023-08-06T01:29:49;1.63;;;0.85;;
82304;SDS011;71914;47.382;8.168;2023-08-06T01:32:22;1.63;;;0.90;;
82304;SDS011;71914;47.382;8.168;2023-08-06T01:34:51;1.20;;;0.75;;
82304;SDS011;71914;47.382;8.168;2023-08-06T01:37:21;1.05;;;0.65;;
82304;SDS011;71914;47.382;8.168;2023-08-06T01:39:49;1.70;;;1.23;;
82304;SDS011;71914;47.382;8.168;2023-08-06T01:42:16;2.40;;;1.10;;
82304;SDS011;71914;47.382;8.168;2023-08-06T01:47:08;1.70;;;0.82;;
82304;SDS011;71914;47.382;8.168;2023-08-06T01:52:01;1.50;;;1.00;;
82304;SDS011;71914;47.382;8.168;2023-08-06T01:54:29;1.42;;;0.73;;
82304;SDS011;71914;47.382;8.168;2023-08-06T01:56:56;1.55;;;0.88;;
82304;SDS011;71914;47.382;8.168;2023-08-06T01:59:23;2.33;;;0.80;;
82304;SDS011;71914;47.382;8.168;2023-08-06T02:01:50;1.77;;;1.00;;
82304;SDS011;71914;47.382;8.168;2023-08-06T02:06:43;1.80;;;1.17;;
82304;SDS011;71914;47.382;8.168;2023-08-06T02:11:37;2.47;;;1.10;;
82304;SDS011;71914;47.382;8.168;2023-08-06T02:14:04;1.40;;;0.85;;
82304;SDS011;71914;47.382;8.168;2023-08-06T02:18:57;2.20;;;1.08;;
82304;SDS011;71914;47.382;8.168;2023-08-06T02:23:49;2.58;;;0.80;;
82304;SDS011;71914;47.382;8.168;2023-08-06T02:26:16;1.42;;;1.02;;
82304;SDS011;71914;47.382;8.168;2023-08-06T02:28:44;3.20;;;0.93;;
82304;SDS011;71914;47.382;8.168;2023-08-06T02:31:11;2.03;;;1.20;;
82304;SDS011;71914;47.382;8.168;2023-08-06T02:33:38;1.15;;;0.80;;
82304;SDS011;71914;47.382;8.168;2023-08-06T02:38:31;1.23;;;0.70;;
82304;SDS011;71914;47.382;8.168;2023-08-06T02:40:58;2.15;;;0.88;;
82304;SDS011;71914;47.382;8.168;2023-08-06T02:45:56;1.55;;;0.80;;
82304;SDS011;71914;47.382;8.168;2023-08-06T02:48:23;2.45;;;1.20;;
82304;SDS011;71914;47.382;8.168;2023-08-06T02:53:28;1.17;;;0.70;;
82304;SDS011;71914;47.382;8.168;2023-08-06T02:55:55;1.25;;;0.90;;
82304;SDS011;71914;47.382;8.168;2023-08-06T03:00:59;1.63;;;1.10;;
82304;SDS011;71914;47.382;8.168;2023-08-06T03:03:27;2.15;;;0.93;;
82304;SDS011;71914;47.382;8.168;2023-08-06T03:05:54;2.08;;;1.13;;
82304;SDS011;71914;47.382;8.168;2023-08-06T03:08:21;2.10;;;1.00;;
82304;SDS011;71914;47.382;8.168;2023-08-06T03:10:48;2.35;;;1.15;;
82304;SDS011;71914;47.382;8.168;2023-08-06T03:13:15;3.50;;;1.08;;
82304;SDS011;71914;47.382;8.168;2023-08-06T03:18:09;1.95;;;0.98;;
82304;SDS011;71914;47.382;8.168;2023-08-06T03:20:36;1.85;;;1.08;;
82304;SDS011;71914;47.382;8.168;2023-08-06T03:23:02;4.05;;;0.93;;
82304;SDS011;71914;47.382;8.168;2023-08-06T03:25:29;1.92;;;1.48;;
82304;SDS011;71914;47.382;8.168;2023-08-06T03:27:55;2.22;;;0.90;;
82304;SDS011;71914;47.382;8.168;2023-08-06T03:30:22;1.20;;;0.80;;
82304;SDS011;71914;47.382;8.168;2023-08-06T03:32:48;4.95;;;1.13;;
82304;SDS011;71914;47.382;8.168;2023-08-06T03:35:16;2.33;;;0.95;;
82304;SDS011;71914;47.382;8.168;2023-08-06T03:37:42;2.05;;;0.80;;
82304;SDS011;71914;47.382;8.168;2023-08-06T03:40:09;1.92;;;0.90;;
82304;SDS011;71914;47.382;8.168;2023-08-06T03:42:36;1.55;;;0.80;;
82304;SDS011;71914;47.382;8.168;2023-08-06T03:45:03;1.70;;;0.98;;
82304;SDS011;71914;47.382;8.168;2023-08-06T03:47:30;1.65;;;1.13;;
82304;SDS011;71914;47.382;8.168;2023-08-06T03:52:25;1.10;;;0.95;;
82304;SDS011;71914;47.382;8.168;2023-08-06T03:54:51;1.73;;;0.88;;
82304;SDS011;71914;47.382;8.168;2023-08-06T03:57:18;1.65;;;1.00;;
82304;SDS011;71914;47.382;8.168;2023-08-06T03:59:44;1.73;;;0.90;;
82304;SDS011;71914;47.382;8.168;2023-08-06T04:02:11;3.00;;;1.10;;
82304;SDS011;71914;47.382;8.168;2023-08-06T04:07:04;3.33;;;0.93;;
82304;SDS011;71914;47.382;8.168;2023-08-06T04:09:32;2.60;;;1.30;;
82304;SDS011;71914;47.382;8.168;2023-08-06T04:11:58;2.63;;;1.08;;
82304;SDS011;71914;47.382;8.168;2023-08-06T04:14:26;1.95;;;1.15;;
82304;SDS011;71914;47.382;8.168;2023-08-06T04:16:53;2.80;;;0.60;;
82304;SDS011;71914;47.382;8.168;2023-08-06T04:19:20;1.92;;;0.47;;
82304;SDS011;71914;47.382;8.168;2023-08-06T04:21:46;3.00;;;0.65;;
82304;SDS011;71914;47.382;8.168;2023-08-06T04:24:13;2.55;;;0.90;;
82304;SDS011;71914;47.382;8.168;2023-08-06T04:26:41;2.35;;;0.40;;
82304;SDS011;71914;47.382;8.168;2023-08-06T04:29:07;1.48;;;0.20;;
82304;SDS011;71914;47.382;8.168;2023-08-06T04:31:34;0.63;;;0.50;;
82304;SDS011;71914;47.382;8.168;2023-08-06T04:34:00;1.65;;;0.50;;
82304;SDS011;71914;47.382;8.168;2023-08-06T04:38:53;1.00;;;0.40;;
82304;SDS011;71914;47.382;8.168;2023-08-06T04:41:20;0.90;;;0.35;;
82304;SDS011;71914;47.382;8.168;2023-08-06T04:46:17;0.40;;;0.22;;
82304;SDS011;71914;47.382;8.168;2023-08-06T04:48:44;2.58;;;0.60;;
82304;SDS011;71914;47.382;8.168;2023-08-06T04:51:10;0.50;;;0.30;;
82304;SDS011;71914;47.382;8.168;2023-08-06T04:53:37;2.90;;;0.50;;
82304;SDS011;71914;47.382;8.168;2023-08-06T04:58:30;0.38;;;0.22;;
82304;SDS011;71914;47.382;8.168;2023-08-06T05:00:58;0.85;;;0.28;;
82304;SDS011;71914;47.382;8.168;2023-08-06T05:03:25;0.30;;;0.20;;
82304;SDS011;71914;47.382;8.168;2023-08-06T05:05:51;0.95;;;0.55;;
82304;SDS011;71914;47.382;8.168;2023-08-06T05:08:18;2.83;;;0.50;;
82304;SDS011;71914;47.382;8.168;2023-08-06T05:10:44;1.10;;;0.68;;
82304;SDS011;71914;47.382;8.168;2023-08-06T05:13:11;0.80;;;0.38;;
82304;SDS011;71914;47.382;8.168;2023-08-06T05:18:08;1.75;;;0.40;;
82304;SDS011;71914;47.382;8.168;2023-08-06T05:20:35;1.58;;;0.57;;
82304;SDS011;71914;47.382;8.168;2023-08-06T05:23:03;0.55;;;0.30;;
82304;SDS011;71914;47.382;8.168;2023-08-06T05:27:56;0.75;;;0.40;;
82304;SDS011;71914;47.382;8.168;2023-08-06T05:30:22;1.33;;;0.57;;
82304;SDS011;71914;47.382;8.168;2023-08-06T05:32:49;1.35;;;0.30;;
82304;SDS011;71914;47.382;8.168;2023-08-06T05:35:17;1.95;;;0.30;;
82304;SDS011;71914;47.382;8.168;2023-08-06T05:37:43;0.30;;;0.30;;
82304;SDS011;71914;47.382;8.168;2023-08-06T05:40:10;2.78;;;0.65;;
82304;SDS011;71914;47.382;8.168;2023-08-06T05:42:37;0.20;;;0.20;;
82304;SDS011;71914;47.382;8.168;2023-08-06T05:45:03;0.93;;;0.52;;
82304;SDS011;71914;47.382;8.168;2023-08-06T05:47:30;0.60;;;0.30;;
82304;SDS011;71914;47.382;8.168;2023-08-06T05:49:57;0.43;;;0.20;;
82304;SDS011;71914;47.382;8.168;2023-08-06T05:52:25;0.47;;;0.20;;
82304;SDS011;71914;47.382;8.168;2023-08-06T05:54:52;0.75;;;0.30;;
82304;SDS011;71914;47.382;8.168;2023-08-06T05:57:20;1.17;;;0.30;;
82304;SDS011;71914;47.382;8.168;2023-08-06T05:59:46;1.65;;;0.38;;
82304;SDS011;71914;47.382;8.168;2023-08-06T06:02:13;0.60;;;0.40;;
82304;SDS011;71914;47.382;8.168;2023-08-06T06:04:40;1.25;;;0.40;;
82304;SDS011;71914;47.382;8.168;2023-08-06T06:07:07;1.02;;;0.30;;
82304;SDS011;71914;47.382;8.168;2023-08-06T06:09:35;1.23;;;0.55;;
82304;SDS011;71914;47.382;8.168;2023-08-06T06:12:01;4.30;;;0.60;;
82304;SDS011;71914;47.382;8.168;2023-08-06T06:14:30;1.10;;;0.52;;
82304;SDS011;71914;47.382;8.168;2023-08-06T06:16:57;2.20;;;1.35;;
82304;SDS011;71914;47.382;8.168;2023-08-06T06:19:25;1.45;;;0.50;;
82304;SDS011;71914;47.382;8.168;2023-08-06T06:21:51;1.42;;;0.40;;
82304;SDS011;71914;47.382;8.168;2023-08-06T06:24:19;0.88;;;0.47;;
82304;SDS011;71914;47.382;8.168;2023-08-06T06:26:47;2.00;;;0.60;;
82304;SDS011;71914;47.382;8.168;2023-08-06T06:29:14;2.78;;;1.02;;
82304;SDS011;71914;47.382;8.168;2023-08-06T06:31:40;2.08;;;0.50;;
82304;SDS011;71914;47.382;8.168;2023-08-06T06:34:07;2.35;;;0.50;;
82304;SDS011;71914;47.382;8.168;2023-08-06T06:36:34;1.02;;;0.40;;
82304;SDS011;71914;47.382;8.168;2023-08-06T06:41:27;1.50;;;0.38;;
82304;SDS011;71914;47.382;8.168;2023-08-06T06:43:58;0.55;;;0.32;;
82304;SDS011;71914;47.382;8.168;2023-08-06T06:46:24;2.38;;;0.40;;
82304;SDS011;71914;47.382;8.168;2023-08-06T06:48:51;1.33;;;0.40;;
82304;SDS011;71914;47.382;8.168;2023-08-06T06:51:18;1.35;;;0.40;;
82304;SDS011;71914;47.382;8.168;2023-08-06T06:53:45;1.27;;;0.50;;
82304;SDS011;71914;47.382;8.168;2023-08-06T06:56:12;1.02;;;0.30;;
82304;SDS011;71914;47.382;8.168;2023-08-06T07:01:07;1.85;;;0.50;;
82304;SDS011;71914;47.382;8.168;2023-08-06T07:03:36;1.20;;;0.65;;
82304;SDS011;71914;47.382;8.168;2023-08-06T07:06:03;3.20;;;0.45;;
82304;SDS011;71914;47.382;8.168;2023-08-06T07:08:30;2.65;;;0.40;;
82304;SDS011;71914;47.382;8.168;2023-08-06T07:11:00;0.57;;;0.40;;
82304;SDS011;71914;47.382;8.168;2023-08-06T07:13:28;0.93;;;0.20;;
82304;SDS011;71914;47.382;8.168;2023-08-06T07:15:55;0.70;;;0.20;;
82304;SDS011;71914;47.382;8.168;2023-08-06T07:18:23;1.42;;;0.63;;
82304;SDS011;71914;47.382;8.168;2023-08-06T07:20:50;1.25;;;0.20;;
82304;SDS011;71914;47.382;8.168;2023-08-06T07:23:17;1.10;;;0.20;;
82304;SDS011;71914;47.382;8.168;2023-08-06T07:25:45;0.65;;;0.20;;
82304;SDS011;71914;47.382;8.168;2023-08-06T07:28:12;0.88;;;0.40;;
82304;SDS011;71914;47.382;8.168;2023-08-06T07:30:39;1.35;;;0.63;;
82304;SDS011;71914;47.382;8.168;2023-08-06T07:33:06;0.93;;;0.50;;
82304;SDS011;71914;47.382;8.168;2023-08-06T07:38:00;1.75;;;0.50;;
82304;SDS011;71914;47.382;8.168;2023-08-06T07:42:53;0.45;;;0.28;;
82304;SDS011;71914;47.382;8.168;2023-08-06T07:47:46;1.27;;;0.30;;
82304;SDS011;71914;47.382;8.168;2023-08-06T07:50:13;0.50;;;0.45;;
82304;SDS011;71914;47.382;8.168;2023-08-06T07:52:41;1.05;;;0.50;;
82304;SDS011;71914;47.382;8.168;2023-08-06T07:55:08;1.55;;;0.32;;
82304;SDS011;71914;47.382;8.168;2023-08-06T07:57:34;0.60;;;0.30;;
82304;SDS011;71914;47.382;8.168;2023-08-06T08:00:03;1.75;;;0.20;;
82304;SDS011;71914;47.382;8.168;2023-08-06T08:02:31;0.90;;;0.38;;
82304;SDS011;71914;47.382;8.168;2023-08-06T08:05:00;0.45;;;0.35;;
82304;SDS011;71914;47.382;8.168;2023-08-06T08:07:27;0.85;;;0.25;;
82304;SDS011;71914;47.382;8.168;2023-08-06T08:09:57;0.82;;;0.55;;
82304;SDS011;71914;47.382;8.168;2023-08-06T08:12:24;1.80;;;0.30;;
82304;SDS011;71914;47.382;8.168;2023-08-06T08:14:50;1.40;;;0.40;;
82304;SDS011;71914;47.382;8.168;2023-08-06T08:17:17;0.28;;;0.22;;
82304;SDS011;71914;47.382;8.168;2023-08-06T08:19:43;0.38;;;0.28;;
82304;SDS011;71914;47.382;8.168;2023-08-06T08:22:10;0.30;;;0.20;;
82304;SDS011;71914;47.382;8.168;2023-08-06T08:24:36;1.10;;;0.30;;
82304;SDS011;71914;47.382;8.168;2023-08-06T08:27:05;1.17;;;0.40;;
82304;SDS011;71914;47.382;8.168;2023-08-06T08:29:32;1.65;;;0.32;;
82304;SDS011;71914;47.382;8.168;2023-08-06T08:31:58;0.20;;;0.20;;
82304;SDS011;71914;47.382;8.168;2023-08-06T08:34:25;1.27;;;0.30;;
82304;SDS011;71914;47.382;8.168;2023-08-06T08:36:51;0.20;;;0.20;;
82304;SDS011;71914;47.382;8.168;2023-08-06T08:39:18;1.13;;;0.28;;
82304;SDS011;71914;47.382;8.168;2023-08-06T08:41:44;0.73;;;0.70;;
82304;SDS011;71914;47.382;8.168;2023-08-06T08:44:12;0.50;;;0.30;;
82304;SDS011;71914;47.382;8.168;2023-08-06T08:46:47;0.70;;;0.40;;
82304;SDS011;71914;47.382;8.168;2023-08-06T08:49:14;0.55;;;0.38;;
82304;SDS011;71914;47.382;8.168;2023-08-06T08:51:41;1.40;;;0.30;;
82304;SDS011;71914;47.382;8.168;2023-08-06T08:54:09;1.38;;;0.30;;
82304;SDS011;71914;47.382;8.168;2023-08-06T08:56:39;0.50;;;0.30;;
82304;SDS011;71914;47.382;8.168;2023-08-06T08:59:05;1.55;;;0.40;;
82304;SDS011;71914;47.382;8.168;2023-08-06T09:01:33;1.85;;;0.80;;
82304;SDS011;71914;47.382;8.168;2023-08-06T09:04:01;0.50;;;0.35;;
82304;SDS011;71914;47.382;8.168;2023-08-06T09:06:29;1.55;;;0.60;;
82304;SDS011;71914;47.382;8.168;2023-08-06T09:09:00;1.73;;;0.60;;
82304;SDS011;71914;47.382;8.168;2023-08-06T09:11:31;0.47;;;0.47;;
82304;SDS011;71914;47.382;8.168;2023-08-06T09:14:06;1.80;;;0.40;;
82304;SDS011;71914;47.382;8.168;2023-08-06T09:16:35;1.85;;;0.40;;
82304;SDS011;71914;47.382;8.168;2023-08-06T09:19:06;0.38;;;0.30;;
82304;SDS011;71914;47.382;8.168;2023-08-06T09:21:33;0.20;;;0.20;;
82304;SDS011;71914;47.382;8.168;2023-08-06T09:24:06;0.20;;;0.20;;
82304;SDS011;71914;47.382;8.168;2023-08-06T09:26:34;4.88;;;0.40;;
82304;SDS011;71914;47.382;8.168;2023-08-06T09:31:32;2.92;;;0.45;;
82304;SDS011;71914;47.382;8.168;2023-08-06T09:34:10;1.15;;;0.22;;
82304;SDS011;71914;47.382;8.168;2023-08-06T09:36:39;1.38;;;0.30;;
82304;SDS011;71914;47.382;8.168;2023-08-06T09:39:12;1.90;;;0.40;;
82304;SDS011;71914;47.382;8.168;2023-08-06T09:41:39;1.17;;;0.40;;
82304;SDS011;71914;47.382;8.168;2023-08-06T09:44:09;0.40;;;0.30;;
82304;SDS011;71914;47.382;8.168;2023-08-06T09:46:43;0.28;;;0.28;;
82304;SDS011;71914;47.382;8.168;2023-08-06T09:49:13;0.40;;;0.28;;
82304;SDS011;71914;47.382;8.168;2023-08-06T09:51:39;0.73;;;0.30;;
82304;SDS011;71914;47.382;8.168;2023-08-06T09:54:06;0.60;;;0.30;;
82304;SDS011;71914;47.382;8.168;2023-08-06T09:56:34;0.60;;;0.20;;
82304;SDS011;71914;47.382;8.168;2023-08-06T09:59:03;0.45;;;0.30;;
82304;SDS011;71914;47.382;8.168;2023-08-06T10:01:31;0.60;;;0.20;;
82304;SDS011;71914;47.382;8.168;2023-08-06T10:04:00;0.20;;;0.20;;
82304;SDS011;71914;47.382;8.168;2023-08-06T10:06:28;0.20;;;0.20;;
82304;SDS011;71914;47.382;8.168;2023-08-06T10:08:55;0.28;;;0.13;;
82304;SDS011;71914;47.382;8.168;2023-08-06T10:11:22;0.50;;;0.30;;
82304;SDS011;71914;47.382;8.168;2023-08-06T10:13:50;0.40;;;0.20;;
82304;SDS011;71914;47.382;8.168;2023-08-06T10:16:21;0.50;;;0.20;;
82304;SDS011;71914;47.382;8.168;2023-08-06T10:18:49;0.50;;;0.30;;
82304;SDS011;71914;47.382;8.168;2023-08-06T10:21:18;0.38;;;0.20;;
82304;SDS011;71914;47.382;8.168;2023-08-06T10:23:49;0.20;;;0.10;;
82304;SDS011;71914;47.382;8.168;2023-08-06T10:26:20;0.52;;;0.30;;
82304;SDS011;71914;47.382;8.168;2023-08-06T10:28:46;0.20;;;0.20;;
82304;SDS011;71914;47.382;8.168;2023-08-06T10:31:13;0.68;;;0.32;;
82304;SDS011;71914;47.382;8.168;2023-08-06T10:33:42;0.40;;;0.20;;
82304;SDS011;71914;47.382;8.168;2023-08-06T10:36:10;0.82;;;0.20;;
82304;SDS011;71914;47.382;8.168;2023-08-06T10:38:44;0.20;;;0.20;;
82304;SDS011;71914;47.382;8.168;2023-08-06T10:41:16;0.65;;;0.30;;
82304;SDS011;71914;47.382;8.168;2023-08-06T10:43:45;0.20;;;0.20;;
82304;SDS011;71914;47.382;8.168;2023-08-06T10:46:21;0.73;;;0.20;;
82304;SDS011;71914;47.382;8.168;2023-08-06T10:48:49;0.80;;;0.50;;
82304;SDS011;71914;47.382;8.168;2023-08-06T10:51:15;1.48;;;0.63;;
82304;SDS011;71914;47.382;8.168;2023-08-06T10:53:42;0.93;;;0.50;;
82304;SDS011;71914;47.382;8.168;2023-08-06T10:56:12;0.68;;;0.30;;
82304;SDS011;71914;47.382;8.168;2023-08-06T10:58:39;1.02;;;0.20;;
82304;SDS011;71914;47.382;8.168;2023-08-06T11:01:06;0.30;;;0.30;;
82304;SDS011;71914;47.382;8.168;2023-08-06T11:03:33;2.75;;;1.10;;
82304;SDS011;71914;47.382;8.168;2023-08-06T11:06:00;1.90;;;1.17;;
82304;SDS011;71914;47.382;8.168;2023-08-06T11:08:28;1.67;;;0.80;;
82304;SDS011;71914;47.382;8.168;2023-08-06T11:10:57;0.55;;;0.40;;
82304;SDS011;71914;47.382;8.168;2023-08-06T11:13:34;1.15;;;0.50;;
82304;SDS011;71914;47.382;8.168;2023-08-06T11:18:28;0.60;;;0.45;;
82304;SDS011;71914;47.382;8.168;2023-08-06T11:20:54;0.22;;;0.22;;
82304;SDS011;71914;47.382;8.168;2023-08-06T11:23:21;0.75;;;0.43;;
82304;SDS011;71914;47.382;8.168;2023-08-06T11:25:47;0.20;;;0.20;;
82304;SDS011;71914;47.382;8.168;2023-08-06T11:28:15;0.50;;;0.40;;
82304;SDS011;71914;47.382;8.168;2023-08-06T11:30:42;0.40;;;0.40;;
82304;SDS011;71914;47.382;8.168;2023-08-06T11:33:08;1.10;;;0.50;;
82304;SDS011;71914;47.382;8.168;2023-08-06T11:35:35;0.70;;;0.40;;
82304;SDS011;71914;47.382;8.168;2023-08-06T11:38:03;0.30;;;0.25;;
82304;SDS011;71914;47.382;8.168;2023-08-06T11:42:57;0.40;;;0.30;;
82304;SDS011;71914;47.382;8.168;2023-08-06T11:47:52;1.27;;;0.30;;
82304;SDS011;71914;47.382;8.168;2023-08-06T11:52:48;3.30;;;2.22;;
82304;SDS011;71914;47.382;8.168;2023-08-06T11:55:22;3.33;;;2.60;;
82304;SDS011;71914;47.382;8.168;2023-08-06T11:57:49;1.75;;;1.08;;
82304;SDS011;71914;47.382;8.168;2023-08-06T12:00:16;0.75;;;0.43;;
82304;SDS011;71914;47.382;8.168;2023-08-06T12:02:48;1.00;;;0.65;;
82304;SDS011;71914;47.382;8.168;2023-08-06T12:05:17;2.78;;;1.67;;
82304;SDS011;71914;47.382;8.168;2023-08-06T12:07:46;0.93;;;0.60;;
82304;SDS011;71914;47.382;8.168;2023-08-06T12:10:15;1.25;;;0.70;;
82304;SDS011;71914;47.382;8.168;2023-08-06T12:12:42;1.83;;;0.30;;
82304;SDS011;71914;47.382;8.168;2023-08-06T12:15:09;0.57;;;0.30;;
82304;SDS011;71914;47.382;8.168;2023-08-06T12:17:36;0.40;;;0.40;;
82304;SDS011;71914;47.382;8.168;2023-08-06T12:20:06;0.60;;;0.30;;
82304;SDS011;71914;47.382;8.168;2023-08-06T12:22:33;1.27;;;0.40;;
82304;SDS011;71914;47.382;8.168;2023-08-06T12:25:01;0.50;;;0.35;;
82304;SDS011;71914;47.382;8.168;2023-08-06T12:27:28;0.60;;;0.40;;
82304;SDS011;71914;47.382;8.168;2023-08-06T12:32:21;1.40;;;0.30;;
82304;SDS011;71914;47.382;8.168;2023-08-06T12:37:15;1.40;;;0.40;;
82304;SDS011;71914;47.382;8.168;2023-08-06T12:39:42;1.13;;;0.32;;
82304;SDS011;71914;47.382;8.168;2023-08-06T12:42:08;1.10;;;0.30;;
82304;SDS011;71914;47.382;8.168;2023-08-06T12:44:35;1.05;;;0.40;;
82304;SDS011;71914;47.382;8.168;2023-08-06T12:47:02;2.40;;;0.43;;
82304;SDS011;71914;47.382;8.168;2023-08-06T12:49:29;0.70;;;0.43;;
82304;SDS011;71914;47.382;8.168;2023-08-06T12:51:56;0.60;;;0.30;;
82304;SDS011;71914;47.382;8.168;2023-08-06T12:54:26;1.23;;;0.30;;
82304;SDS011;71914;47.382;8.168;2023-08-06T12:56:54;0.80;;;0.47;;
82304;SDS011;71914;47.382;8.168;2023-08-06T13:01:47;0.32;;;0.32;;
82304;SDS011;71914;47.382;8.168;2023-08-06T13:06:40;1.73;;;0.40;;
82304;SDS011;71914;47.382;8.168;2023-08-06T13:09:07;0.98;;;0.40;;
82304;SDS011;71914;47.382;8.168;2023-08-06T13:11:35;0.55;;;0.40;;
82304;SDS011;71914;47.382;8.168;2023-08-06T13:14:06;0.60;;;0.40;;
82304;SDS011;71914;47.382;8.168;2023-08-06T13:16:34;1.10;;;0.52;;
82304;SDS011;71914;47.382;8.168;2023-08-06T13:19:01;0.65;;;0.20;;
82304;SDS011;71914;47.382;8.168;2023-08-06T13:21:31;0.45;;;0.38;;
82304;SDS011;71914;47.382;8.168;2023-08-06T13:23:59;0.43;;;0.20;;
82304;SDS011;71914;47.382;8.168;2023-08-06T13:26:26;0.63;;;0.40;;
82304;SDS011;71914;47.382;8.168;2023-08-06T13:28:54;0.60;;;0.35;;
82304;SDS011;71914;47.382;8.168;2023-08-06T13:31:21;0.80;;;0.40;;
82304;SDS011;71914;47.382;8.168;2023-08-06T13:33:48;0.30;;;0.20;;
82304;SDS011;71914;47.382;8.168;2023-08-06T13:36:15;1.88;;;0.40;;
82304;SDS011;71914;47.382;8.168;2023-08-06T13:41:08;3.28;;;0.70;;
82304;SDS011;71914;47.382;8.168;2023-08-06T13:43:34;0.75;;;0.20;;
82304;SDS011;71914;47.382;8.168;2023-08-06T13:46:05;0.60;;;0.30;;
82304;SDS011;71914;47.382;8.168;2023-08-06T13:48:32;0.20;;;0.20;;
82304;SDS011;71914;47.382;8.168;2023-08-06T13:50:58;1.00;;;0.50;;
82304;SDS011;71914;47.382;8.168;2023-08-06T13:55:55;1.40;;;0.50;;
82304;SDS011;71914;47.382;8.168;2023-08-06T13:58:22;0.73;;;0.50;;
82304;SDS011;71914;47.382;8.168;2023-08-06T14:00:48;0.98;;;0.40;;
82304;SDS011;71914;47.382;8.168;2023-08-06T14:03:19;0.95;;;0.60;;
82304;SDS011;71914;47.382;8.168;2023-08-06T14:05:46;1.70;;;0.60;;
82304;SDS011;71914;47.382;8.168;2023-08-06T14:08:13;0.93;;;0.50;;
82304;SDS011;71914;47.382;8.168;2023-08-06T14:13:06;1.10;;;0.57;;
82304;SDS011;71914;47.382;8.168;2023-08-06T14:18:04;1.13;;;0.60;;
82304;SDS011;71914;47.382;8.168;2023-08-06T14:20:32;0.82;;;0.52;;
82304;SDS011;71914;47.382;8.168;2023-08-06T14:22:59;1.67;;;0.80;;
82304;SDS011;71914;47.382;8.168;2023-08-06T14:25:26;0.80;;;0.40;;
82304;SDS011;71914;47.382;8.168;2023-08-06T14:27:53;1.00;;;0.55;;
82304;SDS011;71914;47.382;8.168;2023-08-06T14:30:19;0.65;;;0.52;;
82304;SDS011;71914;47.382;8.168;2023-08-06T14:35:13;1.52;;;0.68;;
82304;SDS011;71914;47.382;8.168;2023-08-06T14:40:07;1.10;;;0.70;;
82304;SDS011;71914;47.382;8.168;2023-08-06T14:42:35;0.90;;;0.50;;
82304;SDS011;71914;47.382;8.168;2023-08-06T14:45:01;0.90;;;0.70;;
82304;SDS011;71914;47.382;8.168;2023-08-06T14:47:28;2.72;;;0.50;;
82304;SDS011;71914;47.382;8.168;2023-08-06T14:49:55;0.68;;;0.60;;
82304;SDS011;71914;47.382;8.168;2023-08-06T14:52:24;1.60;;;0.73;;
82304;SDS011;71914;47.382;8.168;2023-08-06T14:57:20;1.23;;;0.93;;
82304;SDS011;71914;47.382;8.168;2023-08-06T14:59:52;0.70;;;0.50;;
82304;SDS011;71914;47.382;8.168;2023-08-06T15:02:20;1.00;;;0.60;;
82304;SDS011;71914;47.382;8.168;2023-08-06T15:04:47;0.77;;;0.40;;
82304;SDS011;71914;47.382;8.168;2023-08-06T15:07:15;0.45;;;0.32;;
82304;SDS011;71914;47.382;8.168;2023-08-06T15:09:44;1.02;;;0.60;;
82304;SDS011;71914;47.382;8.168;2023-08-06T15:12:13;1.08;;;0.40;;
82304;SDS011;71914;47.382;8.168;2023-08-06T15:14:40;0.73;;;0.70;;
82304;SDS011;71914;47.382;8.168;2023-08-06T15:17:06;1.52;;;0.60;;
82304;SDS011;71914;47.382;8.168;2023-08-06T15:19:36;0.85;;;0.50;;
82304;SDS011;71914;47.382;8.168;2023-08-06T15:24:29;1.42;;;0.60;;
82304;SDS011;71914;47.382;8.168;2023-08-06T15:29:23;1.08;;;0.57;;
82304;SDS011;71914;47.382;8.168;2023-08-06T15:31:50;0.90;;;0.65;;
82304;SDS011;71914;47.382;8.168;2023-08-06T15:36:43;1.55;;;0.68;;
82304;SDS011;71914;47.382;8.168;2023-08-06T15:41:36;1.15;;;0.80;;
82304;SDS011;71914;47.382;8.168;2023-08-06T15:46:30;1.75;;;0.50;;
82304;SDS011;71914;47.382;8.168;2023-08-06T15:48:59;1.33;;;0.75;;
82304;SDS011;71914;47.382;8.168;2023-08-06T15:53:52;1.55;;;0.70;;
82304;SDS011;71914;47.382;8.168;2023-08-06T15:56:19;2.25;;;0.57;;
82304;SDS011;71914;47.382;8.168;2023-08-06T15:58:46;1.60;;;0.43;;
82304;SDS011;71914;47.382;8.168;2023-08-06T16:01:12;1.52;;;0.60;;
82304;SDS011;71914;47.382;8.168;2023-08-06T16:03:40;1.15;;;0.60;;
82304;SDS011;71914;47.382;8.168;2023-08-06T16:06:08;1.85;;;0.60;;
82304;SDS011;71914;47.382;8.168;2023-08-06T16:08:35;1.38;;;0.77;;
82304;SDS011;71914;47.382;8.168;2023-08-06T16:11:05;1.08;;;0.65;;
82304;SDS011;71914;47.382;8.168;2023-08-06T16:13:32;1.55;;;0.68;;
82304;SDS011;71914;47.382;8.168;2023-08-06T16:15:59;0.45;;;0.40;;
82304;SDS011;71914;47.382;8.168;2023-08-06T16:20:53;1.80;;;0.82;;
82304;SDS011;71914;47.382;8.168;2023-08-06T16:23:19;0.85;;;0.70;;
82304;SDS011;71914;47.382;8.168;2023-08-06T16:25:47;1.52;;;1.13;;
82304;SDS011;71914;47.382;8.168;2023-08-06T16:28:14;4.93;;;1.10;;
82304;SDS011;71914;47.382;8.168;2023-08-06T16:33:09;1.75;;;1.40;;
82304;SDS011;71914;47.382;8.168;2023-08-06T16:38:04;0.90;;;0.60;;
82304;SDS011;71914;47.382;8.168;2023-08-06T16:40:31;1.50;;;0.80;;
82304;SDS011;71914;47.382;8.168;2023-08-06T16:42:58;3.90;;;1.05;;
82304;SDS011;71914;47.382;8.168;2023-08-06T16:47:51;4.32;;;2.65;;
82304;SDS011;71914;47.382;8.168;2023-08-06T16:50:18;2.35;;;1.58;;
82304;SDS011;71914;47.382;8.168;2023-08-06T16:52:45;4.40;;;2.95;;